Sousse, Tunisia
Current Conditions -  °F | °C
As of 1:30 PM on Monday 22 Dec 2014 (Local Time) from DTMB Reporting Station
Scattered Clouds Scattered Clouds  
Wind Chill: 18°   Ceiling: Unl
Heat Index: 18°   Visibility: 6mi
Dew Point: 11°   Wind: 10mph
Humidity: 64%   Direction: 330°NNW
Pressure: 30.45"   Gusts: NA
Location:  35.82°N, 10.63°E
Report Text: DTMB 221230Z 33009KT 9999 SCT026 18/11 Q1031 NOSIG
Loading
Personal Weather Stations






























Interactive Weather Map New forecast layout! Learn more

10-Day Weather Forecast

Advertisements
Track Severe Weather on mobile